createdAt,value
2018-12-11T00:00:14.814Z,3.40
2018-12-11T00:02:45.191Z,3.40
2018-12-11T00:05:16.318Z,3.40
2018-12-11T00:07:46.654Z,3.40
2018-12-11T00:10:17.570Z,3.40
2018-12-11T00:12:48.641Z,3.40
2018-12-11T00:15:21.374Z,3.40
2018-12-11T00:17:51.716Z,3.40
2018-12-11T00:20:22.785Z,3.50
2018-12-11T00:22:52.531Z,3.50
2018-12-11T00:25:23.166Z,3.40
2018-12-11T00:27:54.432Z,3.40
2018-12-11T00:30:24.838Z,3.50
2018-12-11T00:32:55.594Z,3.50
2018-12-11T00:35:24.785Z,3.50
2018-12-11T00:37:55.136Z,3.50
2018-12-11T00:40:26.432Z,3.50
2018-12-11T00:42:58.116Z,3.50
2018-12-11T00:45:29.310Z,3.50
2018-12-11T00:48:00.126Z,3.50
2018-12-11T00:50:31.347Z,3.50
2018-12-11T00:53:01.310Z,3.50
2018-12-11T00:55:31.587Z,3.50
2018-12-11T00:58:02.497Z,3.50
2018-12-11T01:00:34.654Z,3.50
2018-12-11T01:03:04.835Z,3.50
2018-12-11T01:05:34.498Z,3.50
2018-12-11T01:08:05.426Z,3.50
2018-12-11T01:10:36.479Z,3.50
2018-12-11T01:13:06.777Z,3.50
2018-12-11T01:15:37.442Z,3.50
2018-12-11T01:18:07.810Z,3.50
2018-12-11T01:20:45.272Z,3.50
2018-12-11T01:23:16.545Z,3.40
2018-12-11T01:25:48.447Z,3.40
2018-12-11T01:28:17.767Z,3.40
2018-12-11T01:30:49.214Z,3.40
2018-12-11T01:33:20.429Z,3.40
2018-12-11T01:35:49.806Z,3.30
2018-12-11T01:38:21.088Z,3.30
2018-12-11T01:40:59.809Z,3.30
2018-12-11T01:43:29.250Z,3.30
2018-12-11T01:46:00.223Z,3.30
2018-12-11T01:48:30.750Z,3.30
2018-12-11T01:51:00.645Z,3.30
2018-12-11T01:53:30.182Z,3.30
2018-12-11T01:55:59.014Z,3.30
2018-12-11T01:58:28.804Z,3.30
2018-12-11T02:00:59.679Z,3.20
2018-12-11T02:03:30.466Z,3.20
2018-12-11T02:06:01.217Z,3.20
2018-12-11T02:08:32.775Z,3.20
2018-12-11T02:11:02.598Z,3.20
2018-12-11T02:13:33.342Z,3.20
2018-12-11T02:16:04.322Z,3.20
2018-12-11T02:18:36.070Z,3.10
2018-12-11T02:21:12.298Z,3.10
2018-12-11T02:23:42.333Z,3.10
2018-12-11T02:26:11.722Z,3.10
2018-12-11T02:28:46.243Z,3.10
2018-12-11T02:31:16.633Z,3.10
2018-12-11T02:33:45.731Z,3.10
2018-12-11T02:36:15.218Z,3.10
2018-12-11T02:38:47.466Z,3.00
2018-12-11T02:41:18.818Z,3.00
2018-12-11T02:43:49.950Z,3.10
2018-12-11T02:46:20.255Z,3.00
2018-12-11T02:48:52.421Z,3.00
2018-12-11T02:51:23.167Z,3.00
2018-12-11T02:53:53.730Z,3.00
2018-12-11T02:56:23.403Z,3.00
2018-12-11T02:58:53.517Z,3.00
2018-12-11T03:01:22.683Z,3.00
2018-12-11T03:03:53.126Z,3.00
2018-12-11T03:06:23.834Z,3.00
2018-12-11T03:08:54.979Z,3.00
2018-12-11T03:11:25.098Z,3.00
2018-12-11T03:13:55.085Z,3.00
2018-12-11T03:16:24.315Z,3.00
2018-12-11T03:18:54.403Z,3.00
2018-12-11T03:22:53.374Z,3.00
2018-12-11T03:25:23.573Z,3.00
2018-12-11T03:27:54.269Z,3.00
2018-12-11T03:30:25.221Z,3.00
2018-12-11T03:32:55.903Z,3.00
2018-12-11T03:35:26.345Z,3.00
2018-12-11T03:37:55.890Z,3.00
2018-12-11T03:40:25.793Z,3.00
2018-12-11T03:42:58.146Z,3.00
2018-12-11T03:45:28.127Z,3.00
2018-12-11T03:47:57.731Z,3.00
2018-12-11T03:50:27.629Z,3.00
2018-12-11T03:52:58.816Z,3.10
2018-12-11T03:55:30.683Z,3.10
2018-12-11T03:58:00.259Z,3.10
2018-12-11T04:00:31.148Z,3.10
2018-12-11T04:03:02.974Z,3.10
2018-12-11T04:05:33.940Z,3.20
2018-12-11T04:08:06.174Z,3.20
2018-12-11T04:10:37.423Z,3.20
2018-12-11T04:13:07.243Z,3.20
2018-12-11T04:15:38.626Z,3.30
2018-12-11T04:18:09.890Z,3.30
2018-12-11T04:20:40.576Z,3.30
2018-12-11T04:23:11.031Z,3.30
2018-12-11T04:25:42.622Z,3.30
2018-12-11T04:28:12.099Z,3.40
2018-12-11T04:30:42.577Z,3.40
2018-12-11T04:33:13.374Z,3.40
2018-12-11T04:35:44.858Z,3.40
2018-12-11T04:38:15.586Z,3.40
2018-12-11T04:40:46.086Z,3.40
2018-12-11T04:43:17.606Z,3.40
2018-12-11T04:45:47.209Z,3.40
2018-12-11T04:48:16.982Z,3.40
2018-12-11T04:50:46.218Z,3.40
2018-12-11T04:53:16.490Z,3.40
2018-12-11T04:55:48.135Z,3.40
2018-12-11T04:58:18.877Z,3.40
2018-12-11T05:00:51.105Z,3.40
2018-12-11T05:03:27.231Z,3.50
2018-12-11T05:05:58.918Z,3.50
2018-12-11T05:08:29.123Z,3.50
2018-12-11T05:11:01.119Z,3.40
2018-12-11T05:13:32.318Z,3.40
2018-12-11T05:16:04.165Z,3.40
2018-12-11T05:18:34.785Z,3.40
2018-12-11T05:21:05.950Z,3.40
2018-12-11T05:23:37.170Z,3.40
2018-12-11T05:26:09.058Z,3.50
2018-12-11T05:28:39.907Z,3.50
2018-12-11T05:31:12.236Z,3.50
2018-12-11T05:33:43.077Z,3.40
2018-12-11T05:36:13.368Z,3.40
2018-12-11T05:38:44.237Z,3.50
2018-12-11T05:41:14.815Z,3.50
2018-12-11T05:43:46.046Z,3.50
2018-12-11T05:46:17.185Z,3.50
2018-12-11T05:48:49.149Z,3.40
2018-12-11T05:51:20.862Z,3.40
2018-12-11T05:53:52.222Z,3.50
2018-12-11T05:56:23.681Z,3.50
2018-12-11T05:58:54.922Z,3.50
2018-12-11T06:01:25.899Z,3.50
2018-12-11T06:03:57.702Z,3.50
2018-12-11T06:06:28.711Z,3.40
2018-12-11T06:08:59.410Z,3.40
2018-12-11T06:11:30.297Z,3.40
2018-12-11T06:14:01.534Z,3.40
2018-12-11T06:16:33.470Z,3.50
2018-12-11T06:19:03.839Z,3.50
2018-12-11T06:21:34.034Z,3.50
2018-12-11T06:24:09.045Z,3.50
2018-12-11T06:26:39.510Z,3.50
2018-12-11T06:29:12.095Z,3.50
2018-12-11T06:31:43.198Z,3.50
2018-12-11T06:34:14.009Z,3.50
2018-12-11T06:36:45.214Z,3.60
2018-12-11T06:39:16.406Z,3.60
2018-12-11T06:41:46.597Z,3.60
2018-12-11T06:44:17.664Z,3.60
2018-12-11T06:46:49.504Z,3.60
2018-12-11T06:49:19.423Z,3.60
2018-12-11T06:51:50.979Z,3.60
2018-12-11T06:54:21.047Z,3.60
2018-12-11T06:56:50.195Z,3.70
2018-12-11T06:59:20.293Z,3.60
2018-12-11T07:01:50.438Z,3.60
2018-12-11T07:04:22.086Z,3.60
2018-12-11T07:06:52.265Z,3.60
2018-12-11T07:09:21.361Z,3.60
2018-12-11T07:11:52.314Z,3.70
2018-12-11T07:14:23.914Z,3.60
2018-12-11T07:16:55.871Z,3.60
2018-12-11T07:19:26.535Z,3.60
2018-12-11T07:21:57.963Z,3.60
2018-12-11T07:24:28.616Z,3.60
2018-12-11T07:26:59.430Z,3.60
2018-12-11T07:29:29.108Z,3.60
2018-12-11T07:31:58.341Z,3.60
2018-12-11T07:34:28.011Z,3.60
2018-12-11T07:36:58.918Z,3.60
2018-12-11T07:39:30.323Z,3.60
2018-12-11T07:42:01.516Z,3.60
2018-12-11T07:44:36.856Z,3.60
2018-12-11T07:47:07.945Z,3.60
2018-12-11T07:49:39.850Z,3.60
2018-12-11T07:52:10.638Z,3.70
2018-12-11T07:54:40.773Z,3.60
2018-12-11T07:57:11.943Z,3.70
2018-12-11T07:59:44.082Z,3.70
2018-12-11T08:02:15.407Z,3.70
2018-12-11T08:04:46.065Z,3.70
2018-12-11T08:07:17.127Z,3.70
2018-12-11T08:09:47.431Z,3.70
2018-12-11T08:12:18.679Z,3.70
2018-12-11T08:14:50.719Z,3.70
2018-12-11T08:17:22.054Z,3.70
2018-12-11T08:19:53.828Z,3.70
2018-12-11T08:22:24.921Z,3.70
2018-12-11T08:24:55.304Z,3.70
2018-12-11T08:27:27.086Z,3.70
2018-12-11T08:29:58.911Z,3.70
2018-12-11T08:32:30.802Z,3.70
2018-12-11T08:35:02.726Z,3.80
2018-12-11T08:37:35.750Z,3.70
2018-12-11T08:40:06.534Z,3.80
2018-12-11T08:42:38.015Z,3.80
2018-12-11T08:45:09.987Z,3.80
2018-12-11T08:47:41.201Z,3.80
2018-12-11T08:50:13.865Z,3.80
2018-12-11T08:52:48.576Z,3.80
2018-12-11T08:55:19.671Z,3.80
2018-12-11T08:57:49.119Z,3.90
2018-12-11T09:00:21.770Z,3.90
2018-12-11T09:02:51.914Z,3.90
2018-12-11T09:05:21.940Z,3.90
2018-12-11T09:07:51.677Z,3.90
2018-12-11T09:10:21.723Z,4.00
2018-12-11T09:12:52.224Z,4.00
2018-12-11T09:15:21.523Z,4.00
2018-12-11T09:17:51.052Z,4.00
2018-12-11T09:20:21.932Z,3.90
2018-12-11T09:22:54.404Z,4.00
2018-12-11T09:25:30.043Z,4.00
2018-12-11T09:27:59.811Z,4.00
2018-12-11T09:30:29.056Z,4.00
2018-12-11T09:32:59.600Z,4.00
2018-12-11T09:35:31.914Z,4.00
2018-12-11T09:38:02.790Z,4.00
2018-12-11T09:40:34.919Z,4.00
2018-12-11T09:43:05.780Z,4.00
2018-12-11T09:45:36.774Z,4.00
2018-12-11T09:48:07.815Z,4.00
2018-12-11T09:50:38.087Z,4.00
2018-12-11T09:53:08.110Z,4.00
2018-12-11T09:55:39.838Z,4.00
2018-12-11T09:58:09.812Z,4.00
2018-12-11T10:00:42.261Z,4.00
2018-12-11T10:03:14.342Z,4.00
2018-12-11T10:05:45.782Z,4.00
2018-12-11T10:08:16.002Z,4.10
2018-12-11T10:10:45.535Z,4.10
2018-12-11T10:13:16.703Z,4.10
2018-12-11T10:15:47.872Z,4.10
2018-12-11T10:18:20.674Z,4.10
2018-12-11T10:20:51.735Z,4.10
2018-12-11T10:23:22.431Z,4.10
2018-12-11T10:25:52.453Z,4.10
2018-12-11T10:28:23.322Z,4.10
2018-12-11T10:30:53.634Z,4.10
2018-12-11T10:33:22.446Z,4.10
2018-12-11T10:35:52.887Z,4.10
2018-12-11T10:38:23.614Z,4.10
2018-12-11T10:40:54.786Z,4.10
2018-12-11T10:43:25.864Z,4.10
2018-12-11T10:45:58.686Z,4.20
2018-12-11T10:48:30.334Z,4.20
2018-12-11T10:51:00.893Z,4.20
2018-12-11T10:53:30.878Z,4.20
2018-12-11T10:55:59.880Z,4.20
2018-12-11T10:58:29.298Z,4.20
2018-12-11T11:01:03.435Z,4.20
2018-12-11T11:03:33.055Z,4.10
2018-12-11T11:06:05.246Z,4.10
2018-12-11T11:08:36.046Z,4.10
2018-12-11T11:11:06.722Z,4.10
2018-12-11T11:13:38.525Z,4.10
2018-12-11T11:16:11.625Z,4.10
2018-12-11T11:18:41.551Z,4.20
2018-12-11T11:21:12.265Z,4.30
2018-12-11T11:23:43.846Z,4.30
2018-12-11T11:26:15.438Z,4.40
2018-12-11T11:28:46.647Z,4.40
2018-12-11T11:31:21.416Z,4.30
2018-12-11T11:33:56.694Z,4.40
2018-12-11T11:36:24.761Z,4.40
2018-12-11T11:38:55.359Z,4.40
2018-12-11T11:41:25.623Z,4.40
2018-12-11T11:43:57.952Z,4.40
2018-12-11T11:46:28.856Z,4.40
2018-12-11T11:48:59.623Z,4.30
2018-12-11T11:51:30.400Z,4.30
2018-12-11T11:54:01.183Z,4.30
2018-12-11T11:56:32.256Z,4.30
2018-12-11T11:59:01.907Z,4.30
2018-12-11T12:01:32.591Z,4.40
2018-12-11T12:04:02.450Z,4.40
2018-12-11T12:06:33.349Z,4.40
2018-12-11T12:09:04.768Z,4.40
2018-12-11T12:11:36.639Z,4.50
2018-12-11T12:14:07.647Z,4.50
2018-12-11T12:16:39.478Z,4.50
2018-12-11T12:19:11.247Z,4.50
2018-12-11T12:21:42.572Z,4.40
2018-12-11T12:24:13.995Z,4.50
2018-12-11T12:26:50.664Z,4.50
2018-12-11T12:29:22.302Z,4.50
2018-12-11T12:31:53.410Z,4.50
2018-12-11T12:34:24.576Z,4.50
2018-12-11T12:36:53.806Z,4.50
2018-12-11T12:39:24.771Z,4.50
2018-12-11T12:41:56.352Z,4.50
2018-12-11T12:44:26.740Z,4.50
2018-12-11T12:46:56.683Z,4.40
2018-12-11T12:49:26.568Z,4.40
2018-12-11T12:51:57.698Z,4.40
2018-12-11T12:54:28.734Z,4.40
2018-12-11T12:56:59.740Z,4.40
2018-12-11T12:59:30.014Z,4.40
2018-12-11T13:02:00.126Z,4.40
2018-12-11T13:04:30.878Z,4.40
2018-12-11T13:07:02.682Z,4.40
2018-12-11T13:09:34.498Z,4.40
2018-12-11T13:12:05.214Z,4.40
2018-12-11T13:14:35.802Z,4.40
2018-12-11T13:17:06.496Z,4.40
2018-12-11T13:19:37.634Z,4.40
2018-12-11T13:22:08.615Z,4.40
2018-12-11T13:24:38.456Z,4.30
2018-12-11T13:27:09.446Z,4.40
2018-12-11T13:29:40.666Z,4.30
2018-12-11T13:32:11.079Z,4.30
2018-12-11T13:34:41.710Z,4.30
2018-12-11T13:37:12.526Z,4.30
2018-12-11T13:39:44.250Z,4.30
2018-12-11T13:42:16.322Z,4.30
2018-12-11T13:44:45.550Z,4.30
2018-12-11T13:47:19.588Z,4.30
2018-12-11T13:49:50.978Z,4.30
2018-12-11T13:52:22.175Z,4.30
2018-12-11T13:54:54.215Z,4.30
2018-12-11T13:57:24.910Z,4.20
2018-12-11T13:59:55.582Z,4.30
2018-12-11T14:02:26.376Z,4.20
2018-12-11T14:04:58.242Z,4.20
2018-12-11T14:07:29.502Z,4.20
2018-12-11T14:10:01.374Z,4.20
2018-12-11T14:12:32.414Z,4.20
2018-12-11T14:15:03.907Z,4.20
2018-12-11T14:17:34.226Z,4.20
2018-12-11T14:20:05.216Z,4.20
2018-12-11T14:22:35.361Z,4.20
2018-12-11T14:25:06.508Z,4.20
2018-12-11T14:27:37.303Z,4.20
2018-12-11T14:30:11.166Z,4.20
2018-12-11T14:32:43.926Z,4.20
2018-12-11T14:35:15.160Z,4.10
2018-12-11T14:37:46.847Z,4.10
2018-12-11T14:40:17.579Z,4.10
2018-12-11T14:42:48.258Z,4.10
2018-12-11T14:45:19.290Z,4.10
2018-12-11T14:47:50.402Z,4.10
2018-12-11T14:50:22.499Z,4.10
2018-12-11T14:52:52.474Z,4.10
2018-12-11T14:55:23.389Z,4.10
2018-12-11T14:57:55.102Z,4.10
2018-12-11T15:00:26.515Z,4.10
2018-12-11T15:02:56.930Z,4.10
2018-12-11T15:05:28.220Z,4.10
2018-12-11T15:07:58.978Z,4.10
2018-12-11T15:10:30.399Z,4.10
2018-12-11T15:13:00.859Z,4.10
2018-12-11T15:15:31.948Z,4.10
2018-12-11T15:18:02.952Z,4.10
2018-12-11T15:20:34.694Z,4.10
2018-12-11T15:23:08.294Z,4.10
2018-12-11T15:25:39.767Z,4.10
2018-12-11T15:28:11.474Z,4.00
2018-12-11T15:30:42.093Z,4.00
2018-12-11T15:33:12.454Z,4.00
2018-12-11T15:35:46.901Z,4.00
2018-12-11T15:38:20.138Z,4.00
2018-12-11T15:40:52.426Z,4.00
2018-12-11T15:43:24.326Z,4.00
2018-12-11T15:46:01.034Z,4.00
2018-12-11T15:48:34.312Z,4.00
2018-12-11T15:51:06.045Z,4.00
2018-12-11T15:53:35.675Z,3.90
2018-12-11T15:56:12.053Z,3.90
2018-12-11T15:58:44.396Z,3.90
2018-12-11T16:01:18.020Z,3.90
2018-12-11T16:03:51.566Z,4.00
2018-12-11T16:06:23.434Z,3.90
2018-12-11T16:08:58.378Z,4.00
2018-12-11T16:11:30.044Z,4.00
2018-12-11T16:13:59.394Z,4.00
2018-12-11T16:16:29.355Z,4.00
2018-12-11T16:19:00.062Z,3.90
2018-12-11T16:21:30.650Z,3.90
2018-12-11T16:24:01.120Z,3.90
2018-12-11T16:26:30.346Z,3.90
2018-12-11T16:29:01.830Z,3.90
2018-12-11T16:31:33.135Z,3.90
2018-12-11T16:34:04.538Z,3.90
2018-12-11T16:36:35.776Z,4.00
2018-12-11T16:39:09.420Z,4.00
2018-12-11T16:41:40.038Z,3.90
2018-12-11T16:44:11.147Z,3.90
2018-12-11T16:46:42.846Z,3.90
2018-12-11T16:49:14.350Z,3.90
2018-12-11T16:51:47.209Z,3.90
2018-12-11T16:54:19.120Z,3.90
2018-12-11T16:56:50.352Z,3.90
2018-12-11T16:59:25.000Z,3.90
2018-12-11T17:01:57.226Z,3.90
2018-12-11T17:22:40.912Z,3.90
2018-12-11T17:25:15.965Z,3.90
2018-12-11T17:30:59.522Z,3.90
2018-12-11T17:36:35.074Z,3.90
2018-12-11T17:39:39.289Z,3.90
2018-12-11T17:45:23.944Z,3.90
2018-12-11T17:57:03.269Z,3.90
2018-12-11T17:59:33.816Z,3.90
2018-12-11T18:02:07.230Z,3.90
2018-12-11T18:04:39.238Z,3.90
2018-12-11T18:07:10.970Z,3.90
2018-12-11T18:21:54.858Z,4.00
2018-12-11T18:24:32.916Z,4.00
2018-12-11T18:27:02.993Z,4.00
2018-12-11T18:29:34.183Z,4.00
2018-12-11T18:32:05.139Z,4.00
2018-12-11T18:34:39.188Z,4.00
2018-12-11T18:37:21.457Z,4.00
2018-12-11T18:39:53.514Z,4.00
2018-12-11T18:42:24.435Z,4.00
2018-12-11T18:44:56.041Z,4.00
2018-12-11T18:47:27.458Z,4.00
2018-12-11T18:49:58.186Z,4.00
2018-12-11T18:52:28.970Z,4.00
2018-12-11T18:54:58.331Z,4.00
2018-12-11T18:57:28.910Z,4.00
2018-12-11T19:00:02.150Z,4.00
2018-12-11T19:02:32.954Z,4.00
2018-12-11T19:05:04.582Z,4.00
2018-12-11T19:07:36.022Z,4.00
2018-12-11T19:10:07.202Z,4.00
2018-12-11T19:12:38.534Z,4.00
2018-12-11T19:18:21.539Z,4.00
2018-12-11T19:20:51.875Z,4.00
2018-12-11T19:23:53.899Z,4.00
2018-12-11T19:26:24.550Z,4.00
2018-12-11T19:28:55.647Z,4.00
2018-12-11T19:31:25.995Z,4.00
2018-12-11T19:33:57.892Z,4.00
2018-12-11T19:36:29.622Z,4.00
2018-12-11T19:39:02.483Z,4.00
2018-12-11T19:41:33.350Z,4.00
2018-12-11T19:44:06.019Z,4.00
2018-12-11T19:46:37.268Z,4.00
2018-12-11T19:49:10.219Z,4.00
2018-12-11T19:51:39.496Z,4.00
2018-12-11T19:54:09.694Z,4.00
2018-12-11T19:56:44.578Z,4.00
2018-12-11T19:59:15.910Z,4.00
2018-12-11T20:01:46.562Z,4.00
2018-12-11T20:04:19.734Z,4.00
2018-12-11T20:06:52.874Z,4.00
2018-12-11T20:09:27.850Z,4.00
2018-12-11T20:11:59.503Z,4.00
2018-12-11T20:14:33.206Z,4.00
2018-12-11T20:17:05.645Z,4.00
2018-12-11T20:23:02.374Z,4.00
2018-12-11T20:25:32.491Z,4.00
2018-12-11T20:28:04.125Z,4.00
2018-12-11T20:30:34.207Z,4.00
2018-12-11T20:33:04.303Z,4.00
2018-12-11T20:35:36.107Z,4.00
2018-12-11T20:38:06.700Z,3.90
2018-12-11T20:40:37.947Z,3.90
2018-12-11T20:43:18.083Z,3.90
2018-12-11T20:45:49.098Z,3.90
2018-12-11T20:48:21.946Z,3.90
2018-12-11T20:50:54.793Z,3.90
2018-12-11T20:53:26.438Z,3.90
2018-12-11T20:55:56.737Z,3.90
2018-12-11T20:58:27.983Z,3.90
2018-12-11T21:00:59.850Z,3.80
2018-12-11T21:03:30.951Z,3.90
2018-12-11T21:06:02.164Z,3.90
2018-12-11T21:08:33.351Z,3.90
2018-12-11T21:11:04.017Z,3.80
2018-12-11T21:13:34.568Z,3.80
2018-12-11T21:16:10.862Z,3.80
2018-12-11T21:18:39.115Z,3.80
2018-12-11T21:21:10.997Z,3.80
2018-12-11T21:23:59.309Z,3.80
2018-12-11T21:26:31.247Z,3.80
2018-12-11T21:29:01.174Z,3.80
2018-12-11T21:31:30.666Z,3.80
2018-12-11T21:34:00.641Z,3.80
2018-12-11T21:36:30.027Z,3.80
2018-12-11T21:39:02.134Z,3.70
2018-12-11T21:41:33.878Z,3.70
2018-12-11T21:44:20.846Z,3.70
2018-12-11T21:46:52.163Z,3.70
2018-12-11T21:49:25.606Z,3.60
2018-12-11T21:51:58.119Z,3.60
2018-12-11T21:54:30.064Z,3.50
2018-12-11T21:57:02.376Z,3.50
2018-12-11T21:59:32.090Z,3.40
2018-12-11T22:06:30.678Z,3.40
2018-12-11T22:09:02.093Z,3.30
2018-12-11T22:11:34.473Z,3.30
2018-12-11T22:14:06.254Z,3.30
2018-12-11T22:16:37.328Z,3.30
2018-12-11T22:19:12.846Z,3.30
2018-12-11T22:21:45.820Z,3.40
2018-12-11T22:24:17.204Z,3.40
2018-12-11T22:26:49.521Z,3.30
2018-12-11T22:29:21.614Z,3.30
2018-12-11T22:31:52.980Z,3.30
2018-12-11T22:34:25.959Z,3.40
2018-12-11T22:36:55.857Z,3.30
2018-12-11T22:39:26.982Z,3.30
2018-12-11T22:41:58.867Z,3.20
2018-12-11T22:44:30.982Z,3.20
2018-12-11T22:47:07.008Z,3.20
2018-12-11T22:49:37.383Z,3.20
2018-12-11T22:52:08.135Z,3.10
2018-12-11T22:54:40.582Z,3.10
2018-12-11T22:57:11.281Z,3.10
2018-12-11T22:59:42.664Z,3.00
2018-12-11T23:02:13.928Z,3.00
2018-12-11T23:04:45.746Z,3.00
2018-12-11T23:07:22.498Z,3.00
2018-12-11T23:09:54.733Z,3.00
2018-12-11T23:12:27.274Z,3.00
2018-12-11T23:14:58.278Z,3.00
2018-12-11T23:17:30.102Z,2.90
2018-12-11T23:20:02.954Z,2.80
2018-12-11T23:22:35.494Z,2.70
2018-12-11T23:25:06.957Z,2.70
2018-12-11T23:27:49.563Z,2.70
2018-12-11T23:30:20.155Z,2.60
2018-12-11T23:32:53.598Z,2.60
2018-12-11T23:35:26.318Z,2.70
2018-12-11T23:37:58.810Z,2.70
2018-12-11T23:40:30.776Z,2.60
2018-12-11T23:43:02.587Z,2.60
2018-12-11T23:45:33.864Z,2.50
2018-12-11T23:48:08.659Z,2.50
2018-12-11T23:50:41.087Z,2.50
2018-12-11T23:53:12.327Z,2.40
2018-12-11T23:55:59.523Z,2.40
2018-12-11T23:58:31.050Z,2.30
